sensor_id;sensor_type;location;lat;lon;timestamp;P1;durP1;ratioP1;P2;durP2;ratioP2
52480;SDS011;38393;52.404;13.532;2023-05-07T00:01:16;17.37;;;10.47;;
52480;SDS011;38393;52.404;13.532;2023-05-07T00:03:41;18.57;;;10.63;;
52480;SDS011;38393;52.404;13.532;2023-05-07T00:06:06;19.13;;;10.63;;
52480;SDS011;38393;52.404;13.532;2023-05-07T00:08:32;20.87;;;9.67;;
52480;SDS011;38393;52.404;13.532;2023-05-07T00:10:57;19.83;;;9.97;;
52480;SDS011;38393;52.404;13.532;2023-05-07T00:13:23;16.33;;;9.57;;
52480;SDS011;38393;52.404;13.532;2023-05-07T00:15:48;16.87;;;10.03;;
52480;SDS011;38393;52.404;13.532;2023-05-07T00:18:14;18.37;;;9.97;;
52480;SDS011;38393;52.404;13.532;2023-05-07T00:20:39;17.03;;;9.70;;
52480;SDS011;38393;52.404;13.532;2023-05-07T00:23:05;20.10;;;10.37;;
52480;SDS011;38393;52.404;13.532;2023-05-07T00:25:30;17.77;;;9.87;;
52480;SDS011;38393;52.404;13.532;2023-05-07T00:27:56;17.23;;;9.60;;
52480;SDS011;38393;52.404;13.532;2023-05-07T00:30:27;17.23;;;9.50;;
52480;SDS011;38393;52.404;13.532;2023-05-07T00:32:52;18.63;;;10.20;;
52480;SDS011;38393;52.404;13.532;2023-05-07T00:35:18;19.10;;;9.53;;
52480;SDS011;38393;52.404;13.532;2023-05-07T00:37:44;17.17;;;9.10;;
52480;SDS011;38393;52.404;13.532;2023-05-07T00:40:09;16.20;;;9.67;;
52480;SDS011;38393;52.404;13.532;2023-05-07T00:42:35;16.10;;;9.30;;
52480;SDS011;38393;52.404;13.532;2023-05-07T00:45:01;16.10;;;9.20;;
52480;SDS011;38393;52.404;13.532;2023-05-07T00:47:27;14.43;;;8.47;;
52480;SDS011;38393;52.404;13.532;2023-05-07T00:49:53;15.03;;;8.10;;
52480;SDS011;38393;52.404;13.532;2023-05-07T00:52:20;16.47;;;8.87;;
52480;SDS011;38393;52.404;13.532;2023-05-07T00:54:48;15.67;;;9.03;;
52480;SDS011;38393;52.404;13.532;2023-05-07T00:57:14;14.07;;;8.27;;
52480;SDS011;38393;52.404;13.532;2023-05-07T00:59:40;17.23;;;8.77;;
52480;SDS011;38393;52.404;13.532;2023-05-07T01:02:06;14.17;;;8.30;;
52480;SDS011;38393;52.404;13.532;2023-05-07T01:04:31;15.47;;;9.20;;
52480;SDS011;38393;52.404;13.532;2023-05-07T01:06:57;17.37;;;8.63;;
52480;SDS011;38393;52.404;13.532;2023-05-07T01:09:24;15.40;;;8.97;;
52480;SDS011;38393;52.404;13.532;2023-05-07T01:11:50;13.47;;;8.63;;
52480;SDS011;38393;52.404;13.532;2023-05-07T01:14:17;16.97;;;9.10;;
52480;SDS011;38393;52.404;13.532;2023-05-07T01:16:43;15.67;;;8.77;;
52480;SDS011;38393;52.404;13.532;2023-05-07T01:19:09;17.47;;;8.80;;
52480;SDS011;38393;52.404;13.532;2023-05-07T01:21:38;13.20;;;8.63;;
52480;SDS011;38393;52.404;13.532;2023-05-07T01:24:06;16.43;;;9.10;;
52480;SDS011;38393;52.404;13.532;2023-05-07T01:26:32;16.80;;;9.10;;
52480;SDS011;38393;52.404;13.532;2023-05-07T01:28:57;17.70;;;8.63;;
52480;SDS011;38393;52.404;13.532;2023-05-07T01:31:23;15.33;;;8.73;;
52480;SDS011;38393;52.404;13.532;2023-05-07T01:33:49;19.83;;;9.40;;
52480;SDS011;38393;52.404;13.532;2023-05-07T01:36:17;15.23;;;8.97;;
52480;SDS011;38393;52.404;13.532;2023-05-07T01:38:44;13.87;;;8.77;;
52480;SDS011;38393;52.404;13.532;2023-05-07T01:41:11;15.10;;;9.33;;
52480;SDS011;38393;52.404;13.532;2023-05-07T01:43:37;17.43;;;8.67;;
52480;SDS011;38393;52.404;13.532;2023-05-07T01:46:02;14.73;;;8.60;;
52480;SDS011;38393;52.404;13.532;2023-05-07T01:48:29;13.93;;;8.73;;
52480;SDS011;38393;52.404;13.532;2023-05-07T01:50:55;16.60;;;9.60;;
52480;SDS011;38393;52.404;13.532;2023-05-07T01:53:21;13.97;;;8.73;;
52480;SDS011;38393;52.404;13.532;2023-05-07T01:55:46;17.17;;;9.67;;
52480;SDS011;38393;52.404;13.532;2023-05-07T01:58:12;15.97;;;8.53;;
52480;SDS011;38393;52.404;13.532;2023-05-07T02:00:37;16.77;;;9.10;;
52480;SDS011;38393;52.404;13.532;2023-05-07T02:03:04;15.87;;;8.63;;
52480;SDS011;38393;52.404;13.532;2023-05-07T02:05:30;14.30;;;8.43;;
52480;SDS011;38393;52.404;13.532;2023-05-07T02:07:55;16.90;;;9.00;;
52480;SDS011;38393;52.404;13.532;2023-05-07T02:10:21;15.23;;;9.10;;
52480;SDS011;38393;52.404;13.532;2023-05-07T02:12:46;15.30;;;8.73;;
52480;SDS011;38393;52.404;13.532;2023-05-07T02:15:12;17.03;;;8.93;;
52480;SDS011;38393;52.404;13.532;2023-05-07T02:20:29;14.13;;;8.33;;
52480;SDS011;38393;52.404;13.532;2023-05-07T02:22:55;15.57;;;8.87;;
52480;SDS011;38393;52.404;13.532;2023-05-07T02:25:20;15.60;;;8.73;;
52480;SDS011;38393;52.404;13.532;2023-05-07T02:27:46;17.97;;;8.83;;
52480;SDS011;38393;52.404;13.532;2023-05-07T02:30:11;15.93;;;8.90;;
52480;SDS011;38393;52.404;13.532;2023-05-07T02:32:37;16.63;;;9.70;;
52480;SDS011;38393;52.404;13.532;2023-05-07T02:35:02;14.33;;;8.33;;
52480;SDS011;38393;52.404;13.532;2023-05-07T02:37:28;14.43;;;8.40;;
52480;SDS011;38393;52.404;13.532;2023-05-07T02:39:54;15.67;;;8.80;;
52480;SDS011;38393;52.404;13.532;2023-05-07T02:42:19;16.67;;;9.03;;
52480;SDS011;38393;52.404;13.532;2023-05-07T02:44:45;15.57;;;8.93;;
52480;SDS011;38393;52.404;13.532;2023-05-07T02:47:10;16.23;;;8.77;;
52480;SDS011;38393;52.404;13.532;2023-05-07T02:49:37;15.03;;;9.20;;
52480;SDS011;38393;52.404;13.532;2023-05-07T02:52:03;15.57;;;8.60;;
52480;SDS011;38393;52.404;13.532;2023-05-07T02:54:28;16.70;;;8.90;;
52480;SDS011;38393;52.404;13.532;2023-05-07T02:56:54;15.43;;;8.93;;
52480;SDS011;38393;52.404;13.532;2023-05-07T02:59:19;16.33;;;8.90;;
52480;SDS011;38393;52.404;13.532;2023-05-07T03:01:45;16.40;;;8.90;;
52480;SDS011;38393;52.404;13.532;2023-05-07T03:04:10;16.63;;;9.27;;
52480;SDS011;38393;52.404;13.532;2023-05-07T03:06:36;19.20;;;9.10;;
52480;SDS011;38393;52.404;13.532;2023-05-07T03:09:02;18.00;;;9.10;;
52480;SDS011;38393;52.404;13.532;2023-05-07T03:11:27;16.30;;;9.20;;
52480;SDS011;38393;52.404;13.532;2023-05-07T03:13:53;16.30;;;9.50;;
52480;SDS011;38393;52.404;13.532;2023-05-07T03:16:18;18.57;;;9.67;;
52480;SDS011;38393;52.404;13.532;2023-05-07T03:18:44;16.53;;;9.33;;
52480;SDS011;38393;52.404;13.532;2023-05-07T03:21:10;17.33;;;9.67;;
52480;SDS011;38393;52.404;13.532;2023-05-07T03:23:35;16.97;;;9.33;;
52480;SDS011;38393;52.404;13.532;2023-05-07T03:26:01;15.83;;;9.10;;
52480;SDS011;38393;52.404;13.532;2023-05-07T03:28:26;16.80;;;9.17;;
52480;SDS011;38393;52.404;13.532;2023-05-07T03:30:51;19.67;;;9.50;;
52480;SDS011;38393;52.404;13.532;2023-05-07T03:33:17;15.10;;;8.87;;
52480;SDS011;38393;52.404;13.532;2023-05-07T03:35:42;20.03;;;9.30;;
52480;SDS011;38393;52.404;13.532;2023-05-07T03:38:08;16.30;;;9.37;;
52480;SDS011;38393;52.404;13.532;2023-05-07T03:40:33;16.67;;;9.40;;
52480;SDS011;38393;52.404;13.532;2023-05-07T03:42:59;14.73;;;8.77;;
52480;SDS011;38393;52.404;13.532;2023-05-07T03:45:25;14.37;;;8.83;;
52480;SDS011;38393;52.404;13.532;2023-05-07T03:47:51;15.93;;;9.17;;
52480;SDS011;38393;52.404;13.532;2023-05-07T03:50:16;15.73;;;9.10;;
52480;SDS011;38393;52.404;13.532;2023-05-07T03:52:42;15.63;;;9.03;;
52480;SDS011;38393;52.404;13.532;2023-05-07T03:55:07;18.80;;;9.77;;
52480;SDS011;38393;52.404;13.532;2023-05-07T03:57:33;16.23;;;8.93;;
52480;SDS011;38393;52.404;13.532;2023-05-07T03:59:59;15.27;;;8.83;;
52480;SDS011;38393;52.404;13.532;2023-05-07T04:02:24;15.60;;;8.80;;
52480;SDS011;38393;52.404;13.532;2023-05-07T04:04:49;18.33;;;9.20;;
52480;SDS011;38393;52.404;13.532;2023-05-07T04:07:15;15.30;;;8.83;;
52480;SDS011;38393;52.404;13.532;2023-05-07T04:09:41;15.57;;;9.13;;
52480;SDS011;38393;52.404;13.532;2023-05-07T04:12:06;15.60;;;9.20;;
52480;SDS011;38393;52.404;13.532;2023-05-07T04:14:32;16.87;;;8.97;;
52480;SDS011;38393;52.404;13.532;2023-05-07T04:16:58;15.17;;;8.53;;
52480;SDS011;38393;52.404;13.532;2023-05-07T04:19:24;15.77;;;8.87;;
52480;SDS011;38393;52.404;13.532;2023-05-07T04:21:50;14.13;;;8.63;;
52480;SDS011;38393;52.404;13.532;2023-05-07T04:24:15;15.93;;;8.63;;
52480;SDS011;38393;52.404;13.532;2023-05-07T04:26:40;14.17;;;8.70;;
52480;SDS011;38393;52.404;13.532;2023-05-07T04:29:06;13.17;;;8.27;;
52480;SDS011;38393;52.404;13.532;2023-05-07T04:31:32;15.07;;;8.30;;
52480;SDS011;38393;52.404;13.532;2023-05-07T04:33:57;18.37;;;8.50;;
52480;SDS011;38393;52.404;13.532;2023-05-07T04:36:23;16.07;;;8.47;;
52480;SDS011;38393;52.404;13.532;2023-05-07T04:38:52;15.13;;;7.83;;
52480;SDS011;38393;52.404;13.532;2023-05-07T04:41:18;13.33;;;7.87;;
52480;SDS011;38393;52.404;13.532;2023-05-07T04:43:43;12.27;;;7.53;;
52480;SDS011;38393;52.404;13.532;2023-05-07T04:46:09;13.30;;;7.93;;
52480;SDS011;38393;52.404;13.532;2023-05-07T04:48:34;13.80;;;8.07;;
52480;SDS011;38393;52.404;13.532;2023-05-07T04:51:00;14.23;;;7.63;;
52480;SDS011;38393;52.404;13.532;2023-05-07T04:53:25;15.10;;;8.00;;
52480;SDS011;38393;52.404;13.532;2023-05-07T04:55:54;11.07;;;7.13;;
52480;SDS011;38393;52.404;13.532;2023-05-07T04:58:21;16.07;;;7.97;;
52480;SDS011;38393;52.404;13.532;2023-05-07T05:00:47;14.70;;;8.00;;
52480;SDS011;38393;52.404;13.532;2023-05-07T05:03:12;11.90;;;7.43;;
52480;SDS011;38393;52.404;13.532;2023-05-07T05:05:38;12.20;;;7.40;;
52480;SDS011;38393;52.404;13.532;2023-05-07T05:08:03;12.10;;;7.17;;
52480;SDS011;38393;52.404;13.532;2023-05-07T05:10:29;12.57;;;7.10;;
52480;SDS011;38393;52.404;13.532;2023-05-07T05:12:54;13.00;;;7.50;;
52480;SDS011;38393;52.404;13.532;2023-05-07T05:15:20;12.27;;;7.27;;
52480;SDS011;38393;52.404;13.532;2023-05-07T05:17:45;15.10;;;7.30;;
52480;SDS011;38393;52.404;13.532;2023-05-07T05:20:11;12.77;;;7.40;;
52480;SDS011;38393;52.404;13.532;2023-05-07T05:22:37;11.30;;;6.50;;
52480;SDS011;38393;52.404;13.532;2023-05-07T05:25:03;12.23;;;7.00;;
52480;SDS011;38393;52.404;13.532;2023-05-07T05:27:28;12.03;;;6.37;;
52480;SDS011;38393;52.404;13.532;2023-05-07T05:29:54;9.80;;;6.40;;
52480;SDS011;38393;52.404;13.532;2023-05-07T05:32:20;11.27;;;6.60;;
52480;SDS011;38393;52.404;13.532;2023-05-07T05:34:45;9.57;;;6.00;;
52480;SDS011;38393;52.404;13.532;2023-05-07T05:37:11;11.50;;;6.43;;
52480;SDS011;38393;52.404;13.532;2023-05-07T05:39:36;10.13;;;6.20;;
52480;SDS011;38393;52.404;13.532;2023-05-07T05:42:02;10.90;;;6.50;;
52480;SDS011;38393;52.404;13.532;2023-05-07T05:44:27;11.33;;;6.30;;
52480;SDS011;38393;52.404;13.532;2023-05-07T05:46:53;12.67;;;6.50;;
52480;SDS011;38393;52.404;13.532;2023-05-07T05:49:20;10.73;;;5.97;;
52480;SDS011;38393;52.404;13.532;2023-05-07T05:51:46;9.67;;;5.87;;
52480;SDS011;38393;52.404;13.532;2023-05-07T05:54:11;9.53;;;5.90;;
52480;SDS011;38393;52.404;13.532;2023-05-07T05:56:37;9.80;;;5.80;;
52480;SDS011;38393;52.404;13.532;2023-05-07T05:59:02;8.43;;;5.00;;
52480;SDS011;38393;52.404;13.532;2023-05-07T06:01:28;10.47;;;5.70;;
52480;SDS011;38393;52.404;13.532;2023-05-07T06:03:54;8.47;;;5.23;;
52480;SDS011;38393;52.404;13.532;2023-05-07T06:06:19;9.53;;;5.63;;
52480;SDS011;38393;52.404;13.532;2023-05-07T06:08:45;10.63;;;6.17;;
52480;SDS011;38393;52.404;13.532;2023-05-07T06:11:10;9.80;;;5.30;;
52480;SDS011;38393;52.404;13.532;2023-05-07T06:13:36;8.50;;;5.57;;
52480;SDS011;38393;52.404;13.532;2023-05-07T06:16:01;9.80;;;5.63;;
52480;SDS011;38393;52.404;13.532;2023-05-07T06:18:27;8.90;;;5.93;;
52480;SDS011;38393;52.404;13.532;2023-05-07T06:20:53;10.03;;;5.50;;
52480;SDS011;38393;52.404;13.532;2023-05-07T06:23:19;8.23;;;5.43;;
52480;SDS011;38393;52.404;13.532;2023-05-07T06:25:48;10.67;;;5.60;;
52480;SDS011;38393;52.404;13.532;2023-05-07T06:28:15;8.43;;;5.47;;
52480;SDS011;38393;52.404;13.532;2023-05-07T06:30:40;11.23;;;6.07;;
52480;SDS011;38393;52.404;13.532;2023-05-07T06:33:06;9.87;;;5.67;;
52480;SDS011;38393;52.404;13.532;2023-05-07T06:35:31;10.17;;;5.83;;
52480;SDS011;38393;52.404;13.532;2023-05-07T06:37:57;7.13;;;4.90;;
52480;SDS011;38393;52.404;13.532;2023-05-07T06:40:22;10.57;;;5.43;;
52480;SDS011;38393;52.404;13.532;2023-05-07T06:42:48;9.20;;;5.30;;
52480;SDS011;38393;52.404;13.532;2023-05-07T06:45:13;8.77;;;5.43;;
52480;SDS011;38393;52.404;13.532;2023-05-07T06:47:39;8.00;;;5.20;;
52480;SDS011;38393;52.404;13.532;2023-05-07T06:50:04;10.73;;;5.80;;
52480;SDS011;38393;52.404;13.532;2023-05-07T06:52:30;9.40;;;5.63;;
52480;SDS011;38393;52.404;13.532;2023-05-07T06:54:56;9.73;;;5.80;;
52480;SDS011;38393;52.404;13.532;2023-05-07T06:57:21;8.77;;;5.43;;
52480;SDS011;38393;52.404;13.532;2023-05-07T06:59:47;7.53;;;5.00;;
52480;SDS011;38393;52.404;13.532;2023-05-07T07:02:12;7.73;;;4.60;;
52480;SDS011;38393;52.404;13.532;2023-05-07T07:04:38;7.87;;;4.97;;
52480;SDS011;38393;52.404;13.532;2023-05-07T07:07:03;8.87;;;5.10;;
52480;SDS011;38393;52.404;13.532;2023-05-07T07:09:28;7.23;;;4.50;;
52480;SDS011;38393;52.404;13.532;2023-05-07T07:11:54;7.77;;;4.67;;
52480;SDS011;38393;52.404;13.532;2023-05-07T07:14:19;6.83;;;4.40;;
52480;SDS011;38393;52.404;13.532;2023-05-07T07:16:45;10.63;;;4.80;;
52480;SDS011;38393;52.404;13.532;2023-05-07T07:19:11;8.60;;;4.60;;
52480;SDS011;38393;52.404;13.532;2023-05-07T07:21:37;7.20;;;4.30;;
52480;SDS011;38393;52.404;13.532;2023-05-07T07:24:02;6.07;;;4.13;;
52480;SDS011;38393;52.404;13.532;2023-05-07T07:26:28;7.47;;;4.37;;
52480;SDS011;38393;52.404;13.532;2023-05-07T07:28:53;7.10;;;3.93;;
52480;SDS011;38393;52.404;13.532;2023-05-07T07:31:19;6.27;;;3.97;;
52480;SDS011;38393;52.404;13.532;2023-05-07T07:33:44;8.27;;;3.60;;
52480;SDS011;38393;52.404;13.532;2023-05-07T07:36:10;6.30;;;3.90;;
52480;SDS011;38393;52.404;13.532;2023-05-07T07:38:35;7.43;;;4.20;;
52480;SDS011;38393;52.404;13.532;2023-05-07T07:41:01;5.43;;;3.57;;
52480;SDS011;38393;52.404;13.532;2023-05-07T07:43:26;5.20;;;3.50;;
52480;SDS011;38393;52.404;13.532;2023-05-07T07:45:52;5.07;;;3.47;;
52480;SDS011;38393;52.404;13.532;2023-05-07T07:48:18;7.53;;;3.40;;
52480;SDS011;38393;52.404;13.532;2023-05-07T07:50:43;6.27;;;3.63;;
52480;SDS011;38393;52.404;13.532;2023-05-07T07:53:09;6.33;;;3.67;;
52480;SDS011;38393;52.404;13.532;2023-05-07T07:55:38;6.60;;;3.83;;
52480;SDS011;38393;52.404;13.532;2023-05-07T07:58:05;6.17;;;4.10;;
52480;SDS011;38393;52.404;13.532;2023-05-07T08:00:30;5.37;;;3.60;;
52480;SDS011;38393;52.404;13.532;2023-05-07T08:02:55;5.70;;;3.50;;
52480;SDS011;38393;52.404;13.532;2023-05-07T08:05:21;6.27;;;3.37;;
52480;SDS011;38393;52.404;13.532;2023-05-07T08:07:47;5.13;;;3.23;;
52480;SDS011;38393;52.404;13.532;2023-05-07T08:10:16;8.17;;;3.53;;
52480;SDS011;38393;52.404;13.532;2023-05-07T08:12:46;8.13;;;4.23;;
52480;SDS011;38393;52.404;13.532;2023-05-07T08:15:14;5.80;;;3.87;;
52480;SDS011;38393;52.404;13.532;2023-05-07T08:17:40;8.13;;;3.50;;
52480;SDS011;38393;52.404;13.532;2023-05-07T08:20:06;6.00;;;3.77;;
52480;SDS011;38393;52.404;13.532;2023-05-07T08:22:32;5.33;;;3.37;;
52480;SDS011;38393;52.404;13.532;2023-05-07T08:24:58;5.43;;;3.50;;
52480;SDS011;38393;52.404;13.532;2023-05-07T08:27:25;7.00;;;3.57;;
52480;SDS011;38393;52.404;13.532;2023-05-07T08:29:50;6.37;;;3.40;;
52480;SDS011;38393;52.404;13.532;2023-05-07T08:32:16;4.87;;;3.00;;
52480;SDS011;38393;52.404;13.532;2023-05-07T08:34:41;4.57;;;3.07;;
52480;SDS011;38393;52.404;13.532;2023-05-07T08:37:07;4.57;;;2.93;;
52480;SDS011;38393;52.404;13.532;2023-05-07T08:39:32;4.97;;;2.90;;
52480;SDS011;38393;52.404;13.532;2023-05-07T08:41:57;5.70;;;2.90;;
52480;SDS011;38393;52.404;13.532;2023-05-07T08:44:27;5.97;;;2.57;;
52480;SDS011;38393;52.404;13.532;2023-05-07T08:46:57;4.07;;;2.50;;
52480;SDS011;38393;52.404;13.532;2023-05-07T08:49:25;4.53;;;2.70;;
52480;SDS011;38393;52.404;13.532;2023-05-07T08:51:52;7.50;;;2.67;;
52480;SDS011;38393;52.404;13.532;2023-05-07T08:54:17;5.37;;;2.53;;
52480;SDS011;38393;52.404;13.532;2023-05-07T08:56:44;3.40;;;2.30;;
52480;SDS011;38393;52.404;13.532;2023-05-07T08:59:10;3.50;;;2.40;;
52480;SDS011;38393;52.404;13.532;2023-05-07T09:01:35;4.13;;;2.50;;
52480;SDS011;38393;52.404;13.532;2023-05-07T09:04:01;4.13;;;2.50;;
52480;SDS011;38393;52.404;13.532;2023-05-07T09:06:27;3.30;;;2.30;;
52480;SDS011;38393;52.404;13.532;2023-05-07T09:08:52;4.77;;;2.30;;
52480;SDS011;38393;52.404;13.532;2023-05-07T09:11:19;5.13;;;2.17;;
52480;SDS011;38393;52.404;13.532;2023-05-07T09:13:53;5.07;;;2.30;;
52480;SDS011;38393;52.404;13.532;2023-05-07T09:16:20;2.57;;;1.83;;
52480;SDS011;38393;52.404;13.532;2023-05-07T09:18:47;5.03;;;2.00;;
52480;SDS011;38393;52.404;13.532;2023-05-07T09:21:15;4.17;;;2.10;;
52480;SDS011;38393;52.404;13.532;2023-05-07T09:23:42;3.17;;;2.30;;
52480;SDS011;38393;52.404;13.532;2023-05-07T09:26:07;4.50;;;2.47;;
52480;SDS011;38393;52.404;13.532;2023-05-07T09:28:37;3.33;;;2.20;;
52480;SDS011;38393;52.404;13.532;2023-05-07T09:31:05;3.93;;;2.40;;
52480;SDS011;38393;52.404;13.532;2023-05-07T09:33:30;3.53;;;2.03;;
52480;SDS011;38393;52.404;13.532;2023-05-07T09:35:56;4.57;;;2.10;;
52480;SDS011;38393;52.404;13.532;2023-05-07T09:38:21;4.22;;;2.10;;
52480;SDS011;38393;52.404;13.532;2023-05-07T09:40:47;2.92;;;2.10;;
52480;SDS011;38393;52.404;13.532;2023-05-07T09:43:26;3.08;;;2.17;;
52480;SDS011;38393;52.404;13.532;2023-05-07T09:45:56;3.42;;;2.20;;
52480;SDS011;38393;52.404;13.532;2023-05-07T09:48:23;3.60;;;2.15;;
52480;SDS011;38393;52.404;13.532;2023-05-07T09:50:51;4.72;;;2.05;;
52480;SDS011;38393;52.404;13.532;2023-05-07T09:53:23;2.95;;;1.98;;
52480;SDS011;38393;52.404;13.532;2023-05-07T09:55:49;3.25;;;2.13;;
52480;SDS011;38393;52.404;13.532;2023-05-07T09:58:16;3.53;;;2.13;;
52480;SDS011;38393;52.404;13.532;2023-05-07T10:00:43;3.20;;;2.25;;
52480;SDS011;38393;52.404;13.532;2023-05-07T10:03:10;2.45;;;1.92;;
52480;SDS011;38393;52.404;13.532;2023-05-07T10:05:36;5.07;;;2.20;;
52480;SDS011;38393;52.404;13.532;2023-05-07T10:08:02;3.35;;;2.17;;
52480;SDS011;38393;52.404;13.532;2023-05-07T10:10:28;3.33;;;2.00;;
52480;SDS011;38393;52.404;13.532;2023-05-07T10:12:55;2.38;;;1.65;;
52480;SDS011;38393;52.404;13.532;2023-05-07T10:15:21;3.83;;;2.03;;
52480;SDS011;38393;52.404;13.532;2023-05-07T10:17:48;4.15;;;2.10;;
52480;SDS011;38393;52.404;13.532;2023-05-07T10:20:14;2.67;;;1.83;;
52480;SDS011;38393;52.404;13.532;2023-05-07T10:22:41;2.15;;;1.50;;
52480;SDS011;38393;52.404;13.532;2023-05-07T10:25:16;2.22;;;1.73;;
52480;SDS011;38393;52.404;13.532;2023-05-07T10:27:46;2.35;;;1.77;;
52480;SDS011;38393;52.404;13.532;2023-05-07T10:30:20;2.70;;;1.70;;
52480;SDS011;38393;52.404;13.532;2023-05-07T10:32:59;2.30;;;1.70;;
52480;SDS011;38393;52.404;13.532;2023-05-07T10:35:30;2.92;;;1.75;;
52480;SDS011;38393;52.404;13.532;2023-05-07T10:38:02;2.60;;;1.67;;
52480;SDS011;38393;52.404;13.532;2023-05-07T10:40:30;3.50;;;1.83;;
52480;SDS011;38393;52.404;13.532;2023-05-07T10:43:02;3.10;;;1.83;;
52480;SDS011;38393;52.404;13.532;2023-05-07T10:45:29;2.67;;;1.80;;
52480;SDS011;38393;52.404;13.532;2023-05-07T10:48:09;2.60;;;1.83;;
52480;SDS011;38393;52.404;13.532;2023-05-07T10:50:42;1.98;;;1.60;;
52480;SDS011;38393;52.404;13.532;2023-05-07T10:55:47;1.90;;;1.70;;
52480;SDS011;38393;52.404;13.532;2023-05-07T10:58:26;2.40;;;1.77;;
52480;SDS011;38393;52.404;13.532;2023-05-07T11:00:56;2.45;;;1.90;;
52480;SDS011;38393;52.404;13.532;2023-05-07T11:03:23;2.50;;;1.88;;
52480;SDS011;38393;52.404;13.532;2023-05-07T11:06:08;4.15;;;1.83;;
52480;SDS011;38393;52.404;13.532;2023-05-07T11:11:18;4.25;;;2.05;;
52480;SDS011;38393;52.404;13.532;2023-05-07T11:13:45;2.30;;;1.73;;
52480;SDS011;38393;52.404;13.532;2023-05-07T11:18:50;2.60;;;1.60;;
52480;SDS011;38393;52.404;13.532;2023-05-07T11:24:03;2.35;;;1.90;;
52480;SDS011;38393;52.404;13.532;2023-05-07T11:26:30;2.92;;;2.05;;
52480;SDS011;38393;52.404;13.532;2023-05-07T11:29:10;2.85;;;1.70;;
52480;SDS011;38393;52.404;13.532;2023-05-07T11:31:39;2.03;;;1.83;;
52480;SDS011;38393;52.404;13.532;2023-05-07T11:34:05;2.40;;;1.80;;
52480;SDS011;38393;52.404;13.532;2023-05-07T11:36:32;2.20;;;1.80;;
52480;SDS011;38393;52.404;13.532;2023-05-07T11:38:58;3.03;;;1.90;;
52480;SDS011;38393;52.404;13.532;2023-05-07T11:41:36;2.20;;;1.70;;
52480;SDS011;38393;52.404;13.532;2023-05-07T11:44:02;2.47;;;1.63;;
52480;SDS011;38393;52.404;13.532;2023-05-07T11:46:27;3.35;;;1.70;;
52480;SDS011;38393;52.404;13.532;2023-05-07T11:48:53;2.20;;;1.88;;
52480;SDS011;38393;52.404;13.532;2023-05-07T11:51:20;1.80;;;1.50;;
52480;SDS011;38393;52.404;13.532;2023-05-07T11:53:47;2.88;;;1.80;;
52480;SDS011;38393;52.404;13.532;2023-05-07T11:56:13;2.47;;;1.70;;
52480;SDS011;38393;52.404;13.532;2023-05-07T11:58:40;2.30;;;1.67;;
52480;SDS011;38393;52.404;13.532;2023-05-07T12:01:07;2.25;;;1.63;;
52480;SDS011;38393;52.404;13.532;2023-05-07T12:03:34;3.08;;;1.80;;
52480;SDS011;38393;52.404;13.532;2023-05-07T12:06:07;2.30;;;1.63;;
52480;SDS011;38393;52.404;13.532;2023-05-07T12:08:35;2.28;;;1.73;;
52480;SDS011;38393;52.404;13.532;2023-05-07T12:11:02;3.42;;;1.80;;
52480;SDS011;38393;52.404;13.532;2023-05-07T12:13:28;2.28;;;1.75;;
52480;SDS011;38393;52.404;13.532;2023-05-07T12:15:54;2.40;;;1.77;;
52480;SDS011;38393;52.404;13.532;2023-05-07T12:18:21;10.32;;;5.55;;
52480;SDS011;38393;52.404;13.532;2023-05-07T12:20:47;2.55;;;1.92;;
52480;SDS011;38393;52.404;13.532;2023-05-07T12:23:14;3.38;;;1.80;;
52480;SDS011;38393;52.404;13.532;2023-05-07T12:25:40;2.15;;;1.45;;
52480;SDS011;38393;52.404;13.532;2023-05-07T12:28:17;2.00;;;1.80;;
52480;SDS011;38393;52.404;13.532;2023-05-07T12:30:43;2.25;;;1.60;;
52480;SDS011;38393;52.404;13.532;2023-05-07T12:33:11;2.20;;;1.55;;
52480;SDS011;38393;52.404;13.532;2023-05-07T12:35:41;2.35;;;1.80;;
52480;SDS011;38393;52.404;13.532;2023-05-07T12:38:07;2.42;;;1.85;;
52480;SDS011;38393;52.404;13.532;2023-05-07T12:40:37;2.13;;;1.52;;
52480;SDS011;38393;52.404;13.532;2023-05-07T12:43:07;2.58;;;1.52;;
52480;SDS011;38393;52.404;13.532;2023-05-07T12:45:39;1.95;;;1.48;;
52480;SDS011;38393;52.404;13.532;2023-05-07T12:48:06;1.83;;;1.48;;
52480;SDS011;38393;52.404;13.532;2023-05-07T12:50:34;2.47;;;1.40;;
52480;SDS011;38393;52.404;13.532;2023-05-07T12:53:00;2.05;;;1.65;;
52480;SDS011;38393;52.404;13.532;2023-05-07T12:55:30;1.70;;;1.40;;
52480;SDS011;38393;52.404;13.532;2023-05-07T12:57:56;2.92;;;1.75;;
52480;SDS011;38393;52.404;13.532;2023-05-07T13:00:32;1.88;;;1.42;;
52480;SDS011;38393;52.404;13.532;2023-05-07T13:03:02;1.95;;;1.40;;
52480;SDS011;38393;52.404;13.532;2023-05-07T13:05:27;3.63;;;1.50;;
52480;SDS011;38393;52.404;13.532;2023-05-07T13:07:53;1.88;;;1.45;;
52480;SDS011;38393;52.404;13.532;2023-05-07T13:10:19;1.70;;;1.40;;
52480;SDS011;38393;52.404;13.532;2023-05-07T13:12:45;1.92;;;1.60;;
52480;SDS011;38393;52.404;13.532;2023-05-07T13:15:10;2.35;;;1.38;;
52480;SDS011;38393;52.404;13.532;2023-05-07T13:17:36;2.00;;;1.40;;
52480;SDS011;38393;52.404;13.532;2023-05-07T13:20:01;3.63;;;1.40;;
52480;SDS011;38393;52.404;13.532;2023-05-07T13:22:27;1.90;;;1.45;;
52480;SDS011;38393;52.404;13.532;2023-05-07T13:24:52;2.22;;;1.30;;
52480;SDS011;38393;52.404;13.532;2023-05-07T13:27:18;2.10;;;1.38;;
52480;SDS011;38393;52.404;13.532;2023-05-07T13:29:44;1.83;;;1.50;;
52480;SDS011;38393;52.404;13.532;2023-05-07T13:32:09;2.00;;;1.58;;
52480;SDS011;38393;52.404;13.532;2023-05-07T13:34:35;1.90;;;1.40;;
52480;SDS011;38393;52.404;13.532;2023-05-07T13:37:01;2.65;;;1.60;;
52480;SDS011;38393;52.404;13.532;2023-05-07T13:39:27;2.85;;;1.80;;
52480;SDS011;38393;52.404;13.532;2023-05-07T13:41:52;3.35;;;2.15;;
52480;SDS011;38393;52.404;13.532;2023-05-07T13:44:18;1.70;;;1.33;;
52480;SDS011;38393;52.404;13.532;2023-05-07T13:46:43;1.60;;;1.30;;
52480;SDS011;38393;52.404;13.532;2023-05-07T13:49:09;2.90;;;1.40;;
52480;SDS011;38393;52.404;13.532;2023-05-07T13:51:36;1.90;;;1.40;;
52480;SDS011;38393;52.404;13.532;2023-05-07T13:54:01;1.40;;;1.30;;
52480;SDS011;38393;52.404;13.532;2023-05-07T13:56:26;1.70;;;1.40;;
52480;SDS011;38393;52.404;13.532;2023-05-07T13:58:53;1.85;;;1.50;;
52480;SDS011;38393;52.404;13.532;2023-05-07T14:01:18;2.03;;;1.52;;
52480;SDS011;38393;52.404;13.532;2023-05-07T14:03:44;2.88;;;2.00;;
52480;SDS011;38393;52.404;13.532;2023-05-07T14:06:09;2.15;;;1.63;;
52480;SDS011;38393;52.404;13.532;2023-05-07T14:08:35;2.55;;;1.50;;
52480;SDS011;38393;52.404;13.532;2023-05-07T14:11:00;1.88;;;1.50;;
52480;SDS011;38393;52.404;13.532;2023-05-07T14:13:26;15.98;;;9.95;;
52480;SDS011;38393;52.404;13.532;2023-05-07T14:15:52;4.25;;;2.30;;
52480;SDS011;38393;52.404;13.532;2023-05-07T14:18:17;2.28;;;1.70;;
52480;SDS011;38393;52.404;13.532;2023-05-07T14:20:43;1.40;;;1.30;;
52480;SDS011;38393;52.404;13.532;2023-05-07T14:23:10;3.60;;;1.50;;
52480;SDS011;38393;52.404;13.532;2023-05-07T14:25:36;2.08;;;1.40;;
52480;SDS011;38393;52.404;13.532;2023-05-07T14:28:01;1.98;;;1.52;;
52480;SDS011;38393;52.404;13.532;2023-05-07T14:30:27;1.88;;;1.40;;
52480;SDS011;38393;52.404;13.532;2023-05-07T14:32:52;2.50;;;1.63;;
52480;SDS011;38393;52.404;13.532;2023-05-07T14:35:18;4.03;;;1.67;;
52480;SDS011;38393;52.404;13.532;2023-05-07T14:37:43;3.03;;;1.77;;